createdAt,value
2023-01-26T00:01:17.634Z,48.42
2023-01-26T00:03:44.555Z,48.60
2023-01-26T00:06:13.562Z,48.39
2023-01-26T00:08:45.789Z,48.35
2023-01-26T00:11:14.729Z,48.30
2023-01-26T00:13:41.494Z,48.29
2023-01-26T00:16:14.795Z,48.26
2023-01-26T00:18:42.331Z,48.55
2023-01-26T00:21:12.895Z,48.36
2023-01-26T00:23:39.457Z,48.35
2023-01-26T00:26:07.709Z,48.26
2023-01-26T00:28:34.262Z,48.35
2023-01-26T00:31:27.618Z,48.28
2023-01-26T00:33:55.636Z,48.16
2023-01-26T00:36:22.182Z,48.54
2023-01-26T00:38:48.701Z,48.14
2023-01-26T00:41:34.223Z,48.56
2023-01-26T00:44:01.634Z,48.48
2023-01-26T00:46:28.200Z,48.41
2023-01-26T00:48:54.770Z,48.37
2023-01-26T00:51:21.277Z,48.24
2023-01-26T00:53:47.758Z,48.35
2023-01-26T00:56:14.842Z,48.45
2023-01-26T00:58:42.241Z,48.31
2023-01-26T01:01:08.805Z,48.19
2023-01-26T01:03:35.402Z,48.48
2023-01-26T01:06:01.941Z,48.79
2023-01-26T01:08:28.494Z,48.38
2023-01-26T01:11:09.700Z,48.39
2023-01-26T01:13:36.359Z,48.62
2023-01-26T01:16:08.122Z,48.60
2023-01-26T01:18:35.738Z,48.42
2023-01-26T01:21:13.911Z,48.89
2023-01-26T01:23:41.101Z,48.28
2023-01-26T01:26:08.382Z,48.37
2023-01-26T01:28:36.144Z,48.15
2023-01-26T01:31:07.365Z,48.38
2023-01-26T01:33:34.253Z,48.54
2023-01-26T01:36:04.021Z,48.54
2023-01-26T01:38:30.766Z,48.29
2023-01-26T01:40:57.805Z,48.16
2023-01-26T01:43:25.229Z,48.48
2023-01-26T01:45:52.669Z,48.17
2023-01-26T01:48:43.308Z,48.59
2023-01-26T01:51:16.663Z,48.53
2023-01-26T01:53:47.334Z,48.37
2023-01-26T01:56:21.544Z,48.28
2023-01-26T01:58:51.336Z,48.59
2023-01-26T02:01:17.869Z,48.45
2023-01-26T02:03:47.218Z,48.45
2023-01-26T02:06:16.407Z,48.39
2023-01-26T02:08:42.929Z,48.37
2023-01-26T02:11:41.609Z,48.51
2023-01-26T02:14:11.571Z,48.55
2023-01-26T02:16:40.012Z,48.78
2023-01-26T02:19:20.030Z,48.39
2023-01-26T02:21:49.626Z,48.44
2023-01-26T02:24:25.445Z,48.53
2023-01-26T02:26:54.582Z,48.64
2023-01-26T02:29:21.718Z,48.74
2023-01-26T02:31:48.746Z,48.54
2023-01-26T02:34:15.996Z,48.74
2023-01-26T02:36:42.527Z,48.61
2023-01-26T02:39:20.952Z,48.81
2023-01-26T02:42:07.705Z,48.82
2023-01-26T02:44:34.369Z,48.40
2023-01-26T02:47:00.900Z,48.89
2023-01-26T02:49:46.233Z,48.86
2023-01-26T02:52:13.797Z,48.33
2023-01-26T02:54:58.992Z,48.90
2023-01-26T02:57:26.423Z,48.94
2023-01-26T02:59:52.937Z,48.74
2023-01-26T03:02:19.545Z,48.93
2023-01-26T03:04:46.126Z,49.09
2023-01-26T03:07:12.696Z,49.11
2023-01-26T03:09:39.222Z,48.87
2023-01-26T03:12:05.945Z,49.07
2023-01-26T03:14:32.476Z,48.58
2023-01-26T03:16:59.037Z,48.83
2023-01-26T03:19:44.277Z,49.05
2023-01-26T03:22:30.229Z,48.93
2023-01-26T03:25:15.426Z,48.96
2023-01-26T03:27:47.304Z,49.29
2023-01-26T03:30:16.338Z,48.93
2023-01-26T03:32:43.560Z,49.14
2023-01-26T03:35:15.156Z,49.08
2023-01-26T03:37:46.939Z,49.18
2023-01-26T03:40:32.881Z,49.07
2023-01-26T03:43:18.268Z,48.81
2023-01-26T03:46:03.544Z,48.86
2023-01-26T03:48:48.981Z,49.29
2023-01-26T03:51:34.296Z,49.40
2023-01-26T03:54:19.142Z,49.50
2023-01-26T03:56:45.660Z,49.24
2023-01-26T03:59:15.147Z,49.25
2023-01-26T04:02:03.158Z,49.30
2023-01-26T04:04:48.811Z,49.14
2023-01-26T04:07:34.340Z,49.26
2023-01-26T04:10:00.859Z,49.54
2023-01-26T04:12:27.356Z,49.31
2023-01-26T04:15:12.203Z,49.49
2023-01-26T04:17:57.468Z,49.57
2023-01-26T04:20:42.690Z,49.43
2023-01-26T04:23:17.953Z,49.52
2023-01-26T04:25:44.465Z,50.21
2023-01-26T04:28:11.004Z,49.61
2023-01-26T04:30:37.485Z,49.51
2023-01-26T04:33:04.242Z,49.45
2023-01-26T04:35:30.789Z,49.44
2023-01-26T04:37:57.444Z,49.46
2023-01-26T04:40:24.084Z,49.65
2023-01-26T04:42:50.595Z,49.69
2023-01-26T04:45:17.178Z,49.47
2023-01-26T04:47:43.662Z,49.83
2023-01-26T04:50:11.030Z,49.59
2023-01-26T04:52:37.686Z,49.43
2023-01-26T04:55:04.429Z,49.39
2023-01-26T04:57:30.957Z,49.71
2023-01-26T04:59:57.461Z,49.41
2023-01-26T05:02:23.941Z,49.65
2023-01-26T05:04:50.495Z,50.16
2023-01-26T05:07:17.047Z,49.80
2023-01-26T05:09:43.532Z,49.91
2023-01-26T05:12:28.674Z,49.55
2023-01-26T05:14:55.170Z,49.81
2023-01-26T05:17:21.686Z,49.83
2023-01-26T05:19:48.210Z,49.65
2023-01-26T05:22:14.739Z,49.79
2023-01-26T05:24:41.226Z,49.85
2023-01-26T05:27:22.947Z,49.77
2023-01-26T05:29:50.821Z,49.94
2023-01-26T05:32:17.960Z,49.92
2023-01-26T05:34:44.787Z,49.93
2023-01-26T05:37:13.738Z,50.23
2023-01-26T05:39:41.309Z,49.85
2023-01-26T05:42:07.838Z,49.93
2023-01-26T05:44:34.357Z,49.95
2023-01-26T05:47:00.840Z,50.19
2023-01-26T05:49:27.404Z,49.65
2023-01-26T05:51:54.020Z,50.25
2023-01-26T05:54:20.512Z,50.06
2023-01-26T05:56:47.064Z,50.19
2023-01-26T05:59:14.581Z,50.00
2023-01-26T06:01:41.154Z,49.52
2023-01-26T06:04:07.852Z,49.92
2023-01-26T06:06:34.359Z,49.82
2023-01-26T06:09:01.005Z,50.29
2023-01-26T06:11:27.575Z,50.11
2023-01-26T06:13:54.084Z,50.18
2023-01-26T06:16:20.742Z,50.63
2023-01-26T06:18:50.153Z,50.19
2023-01-26T06:21:17.101Z,50.52
2023-01-26T06:23:44.208Z,50.27
2023-01-26T06:26:11.008Z,49.96
2023-01-26T06:28:37.685Z,50.16
2023-01-26T06:31:06.063Z,50.12
2023-01-26T06:33:37.309Z,50.31
2023-01-26T06:36:12.679Z,50.23
2023-01-26T06:38:45.041Z,50.10
2023-01-26T06:41:11.983Z,50.27
2023-01-26T06:43:38.513Z,50.12
2023-01-26T06:46:06.354Z,50.13
2023-01-26T06:48:35.095Z,50.19
2023-01-26T06:51:25.883Z,50.28
2023-01-26T06:53:54.958Z,50.15
2023-01-26T06:56:22.523Z,50.21
2023-01-26T06:58:49.129Z,50.14
2023-01-26T07:01:21.727Z,50.11
2023-01-26T07:03:49.635Z,50.09
2023-01-26T07:06:16.290Z,49.94
2023-01-26T07:08:42.839Z,50.31
2023-01-26T07:11:10.048Z,50.08
2023-01-26T07:13:36.596Z,49.98
2023-01-26T07:16:09.083Z,50.30
2023-01-26T07:18:37.385Z,50.61
2023-01-26T07:21:05.648Z,50.12
2023-01-26T07:23:34.567Z,50.09
2023-01-26T07:26:01.433Z,50.32
2023-01-26T07:28:30.424Z,49.95
2023-01-26T07:31:05.494Z,50.23
2023-01-26T07:33:33.371Z,50.31
2023-01-26T07:36:00.496Z,50.16
2023-01-26T07:38:30.936Z,50.54
2023-01-26T07:40:57.920Z,50.00
2023-01-26T07:43:24.419Z,50.29
2023-01-26T07:45:53.846Z,50.31
2023-01-26T07:48:23.053Z,50.24
2023-01-26T07:50:50.541Z,49.92
2023-01-26T07:53:23.018Z,50.30
2023-01-26T07:55:49.675Z,50.36
2023-01-26T07:58:16.243Z,50.54
2023-01-26T08:00:42.750Z,50.29
2023-01-26T08:03:09.302Z,50.32
2023-01-26T08:05:37.046Z,50.31
2023-01-26T08:08:04.226Z,50.24
2023-01-26T08:10:33.833Z,50.30
2023-01-26T08:13:00.770Z,50.33
2023-01-26T08:15:28.461Z,49.96
2023-01-26T08:17:55.332Z,50.32
2023-01-26T08:20:22.646Z,50.08
2023-01-26T08:22:49.167Z,49.83
2023-01-26T08:25:15.830Z,50.57
2023-01-26T08:27:42.342Z,50.11
2023-01-26T08:30:09.697Z,50.42
2023-01-26T08:32:36.484Z,50.29
2023-01-26T08:35:03.220Z,50.43
2023-01-26T08:37:29.766Z,50.01
2023-01-26T08:39:56.305Z,50.24
2023-01-26T08:42:23.002Z,50.17
2023-01-26T08:44:49.687Z,50.34
2023-01-26T08:47:16.225Z,50.21
2023-01-26T08:49:42.759Z,50.19
2023-01-26T08:52:09.261Z,49.98
2023-01-26T08:54:36.056Z,49.86
2023-01-26T08:57:02.550Z,50.27
2023-01-26T08:59:29.035Z,50.22
2023-01-26T09:01:55.863Z,50.26
2023-01-26T09:04:22.494Z,50.52
2023-01-26T09:06:49.029Z,50.45
2023-01-26T09:09:15.707Z,50.29
2023-01-26T09:11:42.843Z,50.28
2023-01-26T09:14:09.347Z,50.15
2023-01-26T09:16:35.968Z,50.34
2023-01-26T09:19:02.520Z,50.21
2023-01-26T09:21:29.122Z,49.98
2023-01-26T09:23:56.794Z,50.06
2023-01-26T09:26:23.409Z,50.16
2023-01-26T09:28:51.940Z,50.52
2023-01-26T09:31:18.857Z,50.22
2023-01-26T09:33:45.606Z,50.20
2023-01-26T09:36:12.844Z,50.08
2023-01-26T09:38:40.136Z,50.02
2023-01-26T09:41:25.641Z,50.45
2023-01-26T09:44:00.059Z,50.14
2023-01-26T09:46:49.723Z,49.72
2023-01-26T09:49:26.713Z,50.24
2023-01-26T09:52:10.383Z,49.78
2023-01-26T09:54:52.232Z,50.12
2023-01-26T09:57:40.381Z,50.35
2023-01-26T10:00:27.908Z,50.67
2023-01-26T10:03:32.086Z,50.14
2023-01-26T10:06:14.111Z,50.48
2023-01-26T10:08:43.863Z,50.34
2023-01-26T10:11:27.164Z,49.63
2023-01-26T10:13:57.345Z,50.00
2023-01-26T10:16:25.251Z,49.84
2023-01-26T10:19:00.304Z,49.97
2023-01-26T10:21:32.988Z,49.13
2023-01-26T10:24:01.995Z,50.16
2023-01-26T10:26:31.710Z,50.44
2023-01-26T10:28:59.004Z,50.51
2023-01-26T10:31:29.185Z,51.14
2023-01-26T10:33:59.717Z,50.42
2023-01-26T10:36:30.329Z,51.55
2023-01-26T10:39:07.663Z,51.56
2023-01-26T10:41:34.731Z,51.03
2023-01-26T10:44:12.322Z,51.53
2023-01-26T10:46:41.533Z,51.63
2023-01-26T10:49:08.267Z,50.64
2023-01-26T10:51:39.526Z,50.64
2023-01-26T10:54:19.671Z,51.45
2023-01-26T10:56:50.214Z,51.29
2023-01-26T10:59:22.648Z,51.46
2023-01-26T11:01:57.557Z,51.01
2023-01-26T11:04:25.639Z,51.08
2023-01-26T11:06:53.026Z,51.29
2023-01-26T11:09:31.518Z,50.01
2023-01-26T11:12:03.655Z,49.81
2023-01-26T11:14:31.948Z,50.27
2023-01-26T11:17:22.488Z,49.52
2023-01-26T11:20:10.054Z,49.88
2023-01-26T11:23:06.965Z,49.19
2023-01-26T11:26:05.348Z,48.95
2023-01-26T11:28:50.389Z,49.63
2023-01-26T11:31:43.516Z,48.56
2023-01-26T11:34:27.448Z,48.34
2023-01-26T11:37:21.970Z,49.18
2023-01-26T11:39:58.213Z,48.13
2023-01-26T11:42:44.356Z,48.95
2023-01-26T11:46:12.645Z,49.01
2023-01-26T11:48:48.369Z,47.70
2023-01-26T11:51:14.857Z,48.82
2023-01-26T11:54:08.963Z,48.24
2023-01-26T11:56:53.526Z,48.02
2023-01-26T11:59:36.974Z,48.47
2023-01-26T12:02:20.197Z,47.89
2023-01-26T12:04:48.016Z,47.99
2023-01-26T12:07:30.272Z,47.94
2023-01-26T12:10:00.494Z,47.75
2023-01-26T12:12:32.648Z,48.15
2023-01-26T12:15:06.158Z,47.58
2023-01-26T12:17:51.311Z,48.27
2023-01-26T12:20:39.634Z,47.77
2023-01-26T12:23:09.349Z,47.23
2023-01-26T12:25:48.077Z,47.65
2023-01-26T12:28:35.971Z,47.96
2023-01-26T12:31:06.864Z,47.10
2023-01-26T12:33:34.488Z,47.29
2023-01-26T12:36:13.470Z,47.14
2023-01-26T12:39:00.192Z,47.12
2023-01-26T12:41:49.870Z,46.86
2023-01-26T12:44:37.203Z,46.70
2023-01-26T12:47:19.689Z,46.34
2023-01-26T12:49:54.093Z,46.66
2023-01-26T12:52:20.650Z,46.60
2023-01-26T12:54:56.342Z,47.00
2023-01-26T12:57:27.379Z,47.31
2023-01-26T12:59:53.925Z,46.95
2023-01-26T13:02:31.756Z,47.25
2023-01-26T13:05:00.148Z,46.48
2023-01-26T13:07:40.202Z,46.76
2023-01-26T13:10:17.802Z,47.31
2023-01-26T13:13:20.982Z,46.71
2023-01-26T13:15:47.787Z,46.78
2023-01-26T13:18:17.760Z,46.57
2023-01-26T13:20:48.950Z,46.98
2023-01-26T13:23:41.894Z,46.23
2023-01-26T13:26:16.355Z,46.94
2023-01-26T13:28:44.346Z,46.76
2023-01-26T13:31:12.184Z,46.84
2023-01-26T13:33:41.089Z,46.61
2023-01-26T13:36:19.024Z,46.64
2023-01-26T13:38:58.200Z,46.23
2023-01-26T13:41:24.764Z,46.91
2023-01-26T13:44:22.776Z,47.10
2023-01-26T13:47:07.154Z,46.76
2023-01-26T13:49:39.263Z,46.51
2023-01-26T13:52:18.167Z,47.10
2023-01-26T13:54:46.061Z,47.22
2023-01-26T13:57:20.333Z,47.00
2023-01-26T13:59:56.462Z,46.91
2023-01-26T14:02:31.223Z,46.98
2023-01-26T14:04:59.423Z,46.50
2023-01-26T14:07:35.834Z,46.52
2023-01-26T14:10:03.616Z,47.08
2023-01-26T14:12:41.194Z,46.40
2023-01-26T14:15:20.589Z,46.54
2023-01-26T14:17:50.419Z,46.40
2023-01-26T14:20:35.610Z,46.39
2023-01-26T14:23:03.565Z,46.56
2023-01-26T14:25:30.310Z,46.58
2023-01-26T14:27:56.793Z,46.56
2023-01-26T14:30:34.211Z,46.66
2023-01-26T14:33:13.024Z,46.65
2023-01-26T14:35:39.853Z,46.48
2023-01-26T14:38:12.105Z,46.24
2023-01-26T14:40:59.884Z,46.69
2023-01-26T14:43:29.843Z,47.11
2023-01-26T14:46:04.581Z,46.54
2023-01-26T14:48:43.316Z,46.64
2023-01-26T14:51:20.518Z,45.87
2023-01-26T14:53:57.663Z,46.47
2023-01-26T14:56:36.898Z,47.01
2023-01-26T14:59:05.083Z,46.62
2023-01-26T15:01:31.646Z,45.94
2023-01-26T15:04:02.412Z,46.14
2023-01-26T15:06:30.875Z,47.06
2023-01-26T15:09:06.779Z,46.58
2023-01-26T15:11:55.250Z,46.33
2023-01-26T15:14:56.895Z,46.33
2023-01-26T15:17:38.269Z,46.15
2023-01-26T15:20:14.616Z,46.38
2023-01-26T15:22:48.642Z,46.93
2023-01-26T15:25:21.365Z,46.59
2023-01-26T15:27:59.288Z,46.46
2023-01-26T15:30:35.860Z,46.80
2023-01-26T15:33:02.927Z,47.06
2023-01-26T15:35:34.660Z,47.01
2023-01-26T15:38:12.614Z,46.86
2023-01-26T15:40:39.604Z,46.66
2023-01-26T15:43:20.028Z,46.97
2023-01-26T15:45:53.025Z,46.89
2023-01-26T15:48:20.815Z,46.90
2023-01-26T15:50:48.175Z,46.73
2023-01-26T15:53:16.364Z,46.39
2023-01-26T15:55:44.595Z,46.71
2023-01-26T15:58:11.258Z,46.75
2023-01-26T16:00:38.870Z,46.77
2023-01-26T16:03:14.483Z,47.26
2023-01-26T16:05:42.017Z,46.83
2023-01-26T16:08:10.089Z,47.33
2023-01-26T16:10:39.727Z,46.93
2023-01-26T16:13:13.626Z,46.75
2023-01-26T16:15:43.727Z,47.04
2023-01-26T16:18:11.217Z,47.46
2023-01-26T16:20:41.000Z,46.67
2023-01-26T16:23:29.296Z,46.90
2023-01-26T16:25:55.895Z,47.78
2023-01-26T16:28:22.908Z,46.66
2023-01-26T16:30:53.000Z,46.76
2023-01-26T16:33:24.581Z,46.81
2023-01-26T16:35:51.330Z,47.17
2023-01-26T16:38:18.201Z,46.81
2023-01-26T16:40:47.573Z,47.01
2023-01-26T16:43:24.461Z,47.15
2023-01-26T16:45:52.354Z,46.76
2023-01-26T16:48:19.360Z,46.65
2023-01-26T16:50:46.069Z,47.49
2023-01-26T16:53:25.647Z,47.01
2023-01-26T16:55:52.307Z,47.23
2023-01-26T16:58:19.676Z,46.98
2023-01-26T17:00:46.240Z,47.07
2023-01-26T17:03:15.599Z,46.72
2023-01-26T17:05:42.256Z,46.94
2023-01-26T17:08:08.781Z,46.65
2023-01-26T17:10:35.692Z,47.24
2023-01-26T17:13:02.591Z,47.27
2023-01-26T17:15:29.224Z,46.71
2023-01-26T17:17:56.177Z,47.13
2023-01-26T17:20:23.144Z,47.02
2023-01-26T17:22:49.947Z,46.61
2023-01-26T17:25:17.703Z,47.26
2023-01-26T17:27:46.489Z,46.89
2023-01-26T17:30:13.298Z,46.91
2023-01-26T17:32:42.274Z,47.53
2023-01-26T17:35:09.229Z,46.87
2023-01-26T17:37:37.681Z,47.53
2023-01-26T17:40:04.741Z,47.55
2023-01-26T17:42:33.372Z,47.11
2023-01-26T17:44:59.917Z,47.00
2023-01-26T17:47:26.447Z,46.95
2023-01-26T17:49:52.986Z,47.31
2023-01-26T17:52:19.573Z,47.75
2023-01-26T17:54:46.064Z,46.85
2023-01-26T17:57:14.103Z,47.10
2023-01-26T17:59:40.648Z,47.03
2023-01-26T18:02:07.208Z,47.09
2023-01-26T18:04:33.807Z,47.19
2023-01-26T18:07:01.856Z,47.25
2023-01-26T18:09:28.424Z,46.91
2023-01-26T18:11:55.056Z,47.13
2023-01-26T18:14:21.648Z,47.57
2023-01-26T18:16:48.587Z,47.59
2023-01-26T18:19:15.586Z,47.10
2023-01-26T18:21:42.131Z,47.46
2023-01-26T18:24:08.859Z,47.84
2023-01-26T18:26:37.214Z,47.32
2023-01-26T18:29:05.543Z,47.02
2023-01-26T18:31:35.252Z,46.86
2023-01-26T18:34:04.055Z,46.80
2023-01-26T18:36:32.497Z,47.18
2023-01-26T18:39:01.885Z,47.26
2023-01-26T18:41:32.994Z,47.67
2023-01-26T18:44:00.591Z,47.92
2023-01-26T18:46:28.155Z,47.26
2023-01-26T18:49:00.492Z,47.19
2023-01-26T18:51:29.253Z,47.67
2023-01-26T18:53:56.256Z,47.32
2023-01-26T18:56:22.883Z,47.85
2023-01-26T18:58:52.687Z,46.81
2023-01-26T19:01:21.240Z,47.35
2023-01-26T19:03:48.031Z,47.74
2023-01-26T19:06:18.364Z,47.29
2023-01-26T19:08:58.387Z,47.46
2023-01-26T19:11:30.787Z,47.56
2023-01-26T19:13:58.198Z,47.74
2023-01-26T19:16:25.101Z,47.36
2023-01-26T19:18:52.341Z,47.59
2023-01-26T19:21:24.463Z,47.35
2023-01-26T19:23:52.999Z,47.47
2023-01-26T19:26:22.783Z,47.43
2023-01-26T19:28:50.999Z,47.95
2023-01-26T19:31:19.381Z,47.31
2023-01-26T19:33:53.725Z,47.53
2023-01-26T19:36:20.834Z,47.54
2023-01-26T19:38:47.669Z,47.93
2023-01-26T19:41:14.495Z,47.29
2023-01-26T19:43:42.009Z,48.28
2023-01-26T19:46:11.686Z,47.30
2023-01-26T19:48:38.441Z,47.76
2023-01-26T19:51:16.334Z,48.00
2023-01-26T19:53:45.184Z,47.26
2023-01-26T19:56:17.749Z,47.83
2023-01-26T19:58:49.965Z,47.50
2023-01-26T20:01:16.584Z,47.84
2023-01-26T20:03:43.279Z,47.33
2023-01-26T20:06:16.508Z,47.78
2023-01-26T20:08:43.362Z,47.17
2023-01-26T20:11:10.521Z,47.62
2023-01-26T20:13:38.075Z,47.87
2023-01-26T20:16:08.653Z,47.91
2023-01-26T20:18:36.261Z,47.56
2023-01-26T20:21:03.514Z,47.76
2023-01-26T20:23:30.086Z,47.50
2023-01-26T20:26:08.624Z,47.31
2023-01-26T20:28:36.697Z,47.82
2023-01-26T20:31:14.815Z,48.36
2023-01-26T20:33:42.013Z,47.57
2023-01-26T20:36:16.809Z,47.74
2023-01-26T20:38:43.699Z,47.48
2023-01-26T20:41:13.552Z,47.65
2023-01-26T20:43:49.369Z,48.38
2023-01-26T20:46:17.754Z,47.68
2023-01-26T20:48:45.015Z,47.28
2023-01-26T20:51:22.153Z,48.07
2023-01-26T20:53:50.141Z,48.22
2023-01-26T20:56:21.370Z,47.74
2023-01-26T20:58:48.673Z,47.66
2023-01-26T21:01:16.797Z,47.44
2023-01-26T21:03:43.888Z,47.36
2023-01-26T21:06:13.183Z,48.26
2023-01-26T21:08:40.962Z,47.91
2023-01-26T21:11:11.436Z,47.70
2023-01-26T21:13:41.120Z,47.89
2023-01-26T21:16:13.349Z,47.73
2023-01-26T21:18:40.173Z,48.15
2023-01-26T21:21:10.275Z,48.30
2023-01-26T21:23:36.874Z,48.36
2023-01-26T21:26:10.103Z,47.72
2023-01-26T21:28:37.041Z,47.95
2023-01-26T21:31:06.626Z,47.45
2023-01-26T21:33:35.758Z,47.76
2023-01-26T21:36:04.920Z,48.38
2023-01-26T21:38:33.793Z,48.47
2023-01-26T21:41:02.241Z,48.37
2023-01-26T21:43:30.281Z,48.22
2023-01-26T21:45:58.766Z,48.38
2023-01-26T21:48:31.612Z,48.08
2023-01-26T21:51:17.631Z,47.78
2023-01-26T21:53:44.541Z,47.87
2023-01-26T21:56:14.619Z,47.72
2023-01-26T21:59:00.042Z,47.85
2023-01-26T22:01:27.395Z,48.41
2023-01-26T22:03:59.117Z,48.29
2023-01-26T22:06:27.040Z,47.83
2023-01-26T22:08:54.179Z,47.92
2023-01-26T22:11:21.156Z,47.96
2023-01-26T22:13:48.148Z,48.30
2023-01-26T22:16:15.422Z,48.49
2023-01-26T22:18:42.296Z,47.78
2023-01-26T22:21:08.886Z,48.42
2023-01-26T22:23:37.280Z,48.29
2023-01-26T22:26:08.901Z,47.60
2023-01-26T22:28:35.684Z,47.71
2023-01-26T22:31:06.396Z,48.62
2023-01-26T22:33:34.713Z,48.49
2023-01-26T22:36:06.327Z,48.60
2023-01-26T22:38:34.633Z,47.99
2023-01-26T22:41:02.664Z,48.04
2023-01-26T22:43:30.567Z,48.68
2023-01-26T22:46:09.374Z,48.26
2023-01-26T22:48:36.275Z,47.96
2023-01-26T22:51:10.966Z,47.55
2023-01-26T22:53:37.907Z,47.90
2023-01-26T22:56:06.270Z,48.56
2023-01-26T22:58:36.320Z,48.25
2023-01-26T23:01:13.206Z,47.40
2023-01-26T23:03:40.903Z,47.91
2023-01-26T23:06:10.767Z,48.32
2023-01-26T23:08:37.535Z,48.03
2023-01-26T23:11:20.946Z,47.74
2023-01-26T23:13:49.224Z,48.19
2023-01-26T23:16:16.523Z,48.51
2023-01-26T23:18:43.451Z,48.13
2023-01-26T23:21:10.947Z,47.98
2023-01-26T23:23:39.249Z,48.04
2023-01-26T23:26:06.573Z,48.19
2023-01-26T23:28:38.682Z,47.92
2023-01-26T23:31:06.176Z,48.09
2023-01-26T23:33:34.525Z,48.38
2023-01-26T23:36:01.496Z,48.04
2023-01-26T23:38:29.841Z,48.08
2023-01-26T23:40:56.663Z,48.37
2023-01-26T23:43:23.888Z,48.27
2023-01-26T23:45:51.143Z,48.22
2023-01-26T23:48:18.680Z,47.26
2023-01-26T23:50:45.805Z,48.43
2023-01-26T23:53:12.805Z,48.19
2023-01-26T23:55:41.570Z,48.19
2023-01-26T23:58:09.029Z,48.35
